createdAt,value
2018-09-25T00:03:20.392Z,5.10
2018-09-25T00:08:28.587Z,5.30
2018-09-25T00:13:36.959Z,5.10
2018-09-25T00:18:45.191Z,5.10
2018-09-25T00:23:53.399Z,5.10
2018-09-25T00:29:01.595Z,5.20
2018-09-25T00:34:09.770Z,5.10
2018-09-25T00:39:17.983Z,5.00
2018-09-25T00:44:26.172Z,5.00
2018-09-25T00:49:34.435Z,5.10
2018-09-25T00:54:42.722Z,5.20
2018-09-25T00:59:50.816Z,5.10
2018-09-25T01:04:59.018Z,5.20
2018-09-25T01:10:07.128Z,5.30
2018-09-25T01:15:15.585Z,5.20
2018-09-25T01:20:23.766Z,5.10
2018-09-25T01:25:31.996Z,5.00
2018-09-25T01:30:40.126Z,5.00
2018-09-25T01:35:48.321Z,4.90
2018-09-25T01:40:56.501Z,4.90
2018-09-25T01:46:04.698Z,4.90
2018-09-25T01:51:13.024Z,4.90
2018-09-25T01:56:21.246Z,4.90
2018-09-25T02:01:29.476Z,4.80
2018-09-25T02:06:37.733Z,4.80
2018-09-25T02:11:46.035Z,4.70
2018-09-25T02:16:54.248Z,4.70
2018-09-25T02:22:02.439Z,4.60
2018-09-25T02:27:10.629Z,4.60
2018-09-25T02:32:18.727Z,4.50
2018-09-25T02:37:26.888Z,4.50
2018-09-25T02:42:35.012Z,4.50
2018-09-25T02:47:43.221Z,4.50
2018-09-25T02:52:51.467Z,4.40
2018-09-25T02:57:59.523Z,4.40
2018-09-25T03:03:07.816Z,4.30
2018-09-25T03:08:16.011Z,4.30
2018-09-25T03:13:24.248Z,4.20
2018-09-25T03:18:32.404Z,4.20
2018-09-25T03:23:40.702Z,4.10
2018-09-25T03:28:48.861Z,4.00
2018-09-25T03:33:57.035Z,4.00
2018-09-25T03:39:05.224Z,3.90
2018-09-25T03:44:13.476Z,3.90
2018-09-25T03:49:21.604Z,3.90
2018-09-25T03:54:29.741Z,3.90
2018-09-25T03:59:37.885Z,3.90
2018-09-25T04:04:45.991Z,3.80
2018-09-25T04:09:54.194Z,3.80
2018-09-25T04:15:02.565Z,3.70
2018-09-25T04:20:10.778Z,3.60
2018-09-25T04:25:18.900Z,3.50
2018-09-25T04:30:27.127Z,3.40
2018-09-25T04:35:35.275Z,3.30
2018-09-25T04:40:43.421Z,3.20
2018-09-25T04:45:51.531Z,3.20
2018-09-25T04:50:59.643Z,3.20
2018-09-25T04:56:07.821Z,3.10
2018-09-25T05:01:15.987Z,3.00
2018-09-25T05:06:24.200Z,3.00
2018-09-25T05:11:32.495Z,3.00
2018-09-25T05:16:40.600Z,3.00
2018-09-25T05:21:49.011Z,3.00
2018-09-25T05:26:57.114Z,3.10
2018-09-25T05:32:05.294Z,3.00
2018-09-25T05:37:13.547Z,3.00
2018-09-25T05:42:21.683Z,3.10
2018-09-25T05:47:29.932Z,3.10
2018-09-25T05:52:38.234Z,3.10
2018-09-25T05:57:46.515Z,3.20
2018-09-25T06:02:54.793Z,3.40
2018-09-25T06:08:03.037Z,3.50
2018-09-25T06:13:11.228Z,3.60
2018-09-25T06:18:19.360Z,3.80
2018-09-25T06:23:27.593Z,4.10
2018-09-25T06:28:35.904Z,4.30
2018-09-25T06:33:44.152Z,4.50
2018-09-25T06:38:52.504Z,4.70
2018-09-25T06:44:00.706Z,5.00
2018-09-25T06:49:08.893Z,5.30
2018-09-25T06:54:17.023Z,5.60
2018-09-25T06:59:25.163Z,5.90
2018-09-25T07:04:33.401Z,6.20
2018-09-25T07:09:41.715Z,6.60
2018-09-25T07:14:49.880Z,7.10
2018-09-25T07:19:58.062Z,7.40
2018-09-25T07:25:06.234Z,7.80
2018-09-25T07:30:14.352Z,8.20
2018-09-25T07:35:22.658Z,8.60
2018-09-25T07:40:30.889Z,9.10
2018-09-25T07:45:39.196Z,9.50
2018-09-25T07:50:47.297Z,9.90
2018-09-25T07:55:55.546Z,10.00
2018-09-25T08:01:03.656Z,10.30
2018-09-25T08:06:11.799Z,11.90
2018-09-25T08:11:20.024Z,14.00
2018-09-25T08:16:28.302Z,15.00
2018-09-25T08:21:36.528Z,15.30
2018-09-25T08:26:44.760Z,15.70
2018-09-25T08:31:52.969Z,16.30
2018-09-25T08:37:01.068Z,16.80
2018-09-25T08:42:09.218Z,17.40
2018-09-25T08:47:17.291Z,18.00
2018-09-25T08:52:25.476Z,17.40
2018-09-25T08:57:33.668Z,17.40
2018-09-25T09:02:41.791Z,17.40
2018-09-25T09:07:50.053Z,18.20
2018-09-25T09:12:58.307Z,19.00
2018-09-25T09:18:06.558Z,19.50
2018-09-25T09:23:14.744Z,20.20
2018-09-25T09:28:22.902Z,19.20
2018-09-25T09:33:31.055Z,20.60
2018-09-25T09:38:39.231Z,20.00
2018-09-25T09:43:47.384Z,20.00
2018-09-25T09:48:55.596Z,20.30
2018-09-25T09:54:03.778Z,20.60
2018-09-25T09:59:11.940Z,21.20
2018-09-25T10:04:20.109Z,21.10
2018-09-25T10:09:28.339Z,20.70
2018-09-25T10:14:36.501Z,20.30
2018-09-25T10:19:44.795Z,20.30
2018-09-25T10:24:53.001Z,20.70
2018-09-25T10:30:01.283Z,21.00
2018-09-25T10:35:09.408Z,20.80
2018-09-25T10:40:17.526Z,20.60
2018-09-25T10:45:25.680Z,21.40
2018-09-25T10:50:33.951Z,22.00
2018-09-25T10:55:42.101Z,22.40
2018-09-25T11:00:50.291Z,23.20
2018-09-25T11:05:58.539Z,23.50
2018-09-25T11:11:06.760Z,23.00
2018-09-25T11:16:14.875Z,23.40
2018-09-25T11:21:23.194Z,23.70
2018-09-25T11:26:31.340Z,24.40
2018-09-25T11:31:39.562Z,24.30
2018-09-25T11:36:47.908Z,23.20
2018-09-25T11:41:56.117Z,24.40
2018-09-25T11:47:04.393Z,25.10
2018-09-25T11:52:12.547Z,25.20
2018-09-25T11:57:20.713Z,25.80
2018-09-25T12:02:28.893Z,25.70
2018-09-25T12:07:37.010Z,25.90
2018-09-25T12:12:45.275Z,26.10
2018-09-25T12:17:53.466Z,26.70
2018-09-25T12:23:01.743Z,27.40
2018-09-25T12:28:10.024Z,27.00
2018-09-25T12:33:18.304Z,26.50
2018-09-25T12:38:26.566Z,27.10
2018-09-25T12:43:34.836Z,27.70
2018-09-25T12:48:42.943Z,28.40
2018-09-25T12:53:51.167Z,27.90
2018-09-25T12:58:59.297Z,29.50
2018-09-25T13:04:07.407Z,30.40
2018-09-25T13:09:15.658Z,30.50
2018-09-25T13:14:23.759Z,30.00
2018-09-25T13:19:31.918Z,30.10
2018-09-25T13:24:40.153Z,29.70
2018-09-25T13:29:48.359Z,30.20
2018-09-25T13:34:56.572Z,31.20
2018-09-25T13:40:04.807Z,31.40
2018-09-25T13:45:12.919Z,31.80
2018-09-25T13:50:21.032Z,31.90
2018-09-25T13:55:29.217Z,30.70
2018-09-25T14:00:37.520Z,29.50
2018-09-25T14:05:47.153Z,29.90
2018-09-25T14:10:55.211Z,29.70
2018-09-25T14:16:03.413Z,29.80
2018-09-25T14:21:11.683Z,30.20
2018-09-25T14:26:19.872Z,30.00
2018-09-25T14:31:35.795Z,29.30
2018-09-25T14:36:44.114Z,30.60
2018-09-25T14:41:52.235Z,29.60
2018-09-25T14:47:00.339Z,28.30
2018-09-25T14:52:08.536Z,28.70
2018-09-25T14:57:16.683Z,29.50
2018-09-25T15:02:24.840Z,30.60
2018-09-25T15:07:33.721Z,30.70
2018-09-25T15:12:41.819Z,30.70
2018-09-25T15:17:50.024Z,31.20
2018-09-25T15:22:58.132Z,30.50
2018-09-25T15:28:08.004Z,29.10
2018-09-25T15:33:16.222Z,28.80
2018-09-25T15:38:24.512Z,27.70
2018-09-25T15:43:32.796Z,27.00
2018-09-25T15:48:41.037Z,26.70
2018-09-25T15:53:49.164Z,25.60
2018-09-25T15:58:57.388Z,25.40
2018-09-25T16:04:05.594Z,24.60
2018-09-25T16:09:14.332Z,24.30
2018-09-25T16:14:23.215Z,24.10
2018-09-25T16:19:31.502Z,24.10
2018-09-25T16:24:39.695Z,24.60
2018-09-25T16:29:47.880Z,24.10
2018-09-25T16:34:56.009Z,22.20
2018-09-25T16:40:04.295Z,20.00
2018-09-25T16:45:12.551Z,17.90
2018-09-25T16:50:20.649Z,16.20
2018-09-25T16:55:28.919Z,15.20
2018-09-25T17:00:37.253Z,14.30
2018-09-25T17:05:45.662Z,13.60
2018-09-25T17:10:53.808Z,13.10
2018-09-25T17:16:01.928Z,12.50
2018-09-25T17:21:10.127Z,12.10
2018-09-25T17:26:18.291Z,11.70
2018-09-25T17:31:26.512Z,8.20
2018-09-25T17:36:34.716Z,11.10
2018-09-25T17:41:42.972Z,10.90
2018-09-25T17:46:51.164Z,10.60
2018-09-25T17:51:59.341Z,10.40
2018-09-25T17:57:07.472Z,10.20
2018-09-25T18:02:15.668Z,9.90
2018-09-25T18:07:23.979Z,9.70
2018-09-25T18:12:32.289Z,9.50
2018-09-25T18:17:40.631Z,9.20
2018-09-25T18:22:48.846Z,9.00
2018-09-25T18:27:57.143Z,8.80
2018-09-25T18:33:05.293Z,8.50
2018-09-25T18:38:13.553Z,8.20
2018-09-25T18:43:21.775Z,8.00
2018-09-25T18:48:29.977Z,7.80
2018-09-25T18:53:38.212Z,7.50
2018-09-25T18:58:46.442Z,8.40
2018-09-25T19:03:54.582Z,7.30
2018-09-25T19:09:02.718Z,7.10
2018-09-25T19:14:11.004Z,6.90
2018-09-25T19:19:19.207Z,6.80
2018-09-25T19:24:27.376Z,6.40
2018-09-25T19:29:35.545Z,6.40
2018-09-25T19:34:43.697Z,6.30
2018-09-25T19:39:51.868Z,6.20
2018-09-25T19:45:00.019Z,6.20
2018-09-25T19:50:08.190Z,6.10
2018-09-25T19:55:16.529Z,6.10
2018-09-25T20:05:32.854Z,6.00
2018-09-25T20:10:41.025Z,5.80
2018-09-25T20:15:49.279Z,5.70
2018-09-25T20:20:58.269Z,5.70
2018-09-25T20:26:06.433Z,5.90
2018-09-25T20:31:14.517Z,6.10
2018-09-25T20:36:22.756Z,6.10
2018-09-25T20:41:30.975Z,6.10
2018-09-25T20:46:39.162Z,6.00
2018-09-25T20:51:47.345Z,5.80
2018-09-25T21:02:03.764Z,5.60
2018-09-25T21:12:19.938Z,5.60
2018-09-25T21:17:28.191Z,5.60
2018-09-25T21:22:36.474Z,5.80
2018-09-25T21:27:44.713Z,5.80
2018-09-25T21:38:01.023Z,5.90
2018-09-25T21:43:09.665Z,6.00
2018-09-25T21:48:17.908Z,6.00
2018-09-25T21:53:26.207Z,6.50
2018-09-25T21:58:34.367Z,6.70
2018-09-25T22:03:42.559Z,7.10
2018-09-25T22:08:50.676Z,7.30
2018-09-25T22:13:58.840Z,7.60
2018-09-25T22:19:06.978Z,7.40
2018-09-25T22:24:15.163Z,7.20
2018-09-25T22:29:23.267Z,7.10
2018-09-25T22:34:31.526Z,6.90
2018-09-25T22:39:39.670Z,6.70
2018-09-25T22:44:47.902Z,6.70
2018-09-25T22:49:56.088Z,6.60
2018-09-25T22:55:04.295Z,6.40
2018-09-25T23:00:12.440Z,6.20
2018-09-25T23:05:20.544Z,6.10
2018-09-25T23:10:28.732Z,6.20
2018-09-25T23:15:37.017Z,6.30
2018-09-25T23:20:45.373Z,6.90
2018-09-25T23:25:53.595Z,7.30
2018-09-25T23:31:01.736Z,7.30
2018-09-25T23:36:10.040Z,7.20
2018-09-25T23:41:18.199Z,7.20
2018-09-25T23:46:26.391Z,7.40
2018-09-25T23:51:38.043Z,7.60
2018-09-25T23:56:46.200Z,7.90
